Time;durP1;ratioP1;P1;durP2;ratioP2;P2;SDS_P1;SDS_P2;PMS_P1;PMS_P2;Temp;Humidity;BMP_temperature;BMP_pressure;BME280_temperature;BME280_humidity;BME280_pressure;Samples;Min_cycle;Max_cycle;Signal;HPM_P1;HPM_P2
2022/06/10 00:00:43;;;;;;;7.05;2.70;;;;;;;;;;4947557;28;20065;-76
2022/06/10 00:03:11;;;;;;;5.22;2.80;;;;;;;;;;4950873;28;20040;-76
2022/06/10 00:05:36;;;;;;;5.25;3.28;;;;;;;;;;4917242;28;20093;-76
2022/06/10 00:08:11;;;;;;;7.40;3.50;;;;;;;;;;4952306;28;20448;-75
2022/06/10 00:10:37;;;;;;;5.78;3.40;;;;;;;;;;4949374;28;20265;-77
2022/06/10 00:13:03;;;;;;;5.93;3.45;;;;;;;;;;4947746;28;20040;-74
2022/06/10 00:15:29;;;;;;;8.32;3.58;;;;;;;;;;4949069;28;20440;-78
2022/06/10 00:17:55;;;;;;;6.03;3.67;;;;;;;;;;4949849;28;20066;-76
2022/06/10 00:20:23;;;;;;;4.20;3.05;;;;;;;;;;4949548;28;20035;-77
2022/06/10 00:22:48;;;;;;;10.73;3.55;;;;;;;;;;4951958;28;20126;-77
2022/06/10 00:25:14;;;;;;;6.00;3.25;;;;;;;;;;4948938;28;20118;-77
2022/06/10 00:27:40;;;;;;;5.50;3.10;;;;;;;;;;4948248;28;20050;-77
2022/06/10 00:30:07;;;;;;;4.60;2.80;;;;;;;;;;4947708;28;20047;-75
2022/06/10 00:32:34;;;;;;;4.70;2.40;;;;;;;;;;4946549;28;20031;-75
2022/06/10 00:35:02;;;;;;;4.75;2.58;;;;;;;;;;4952211;28;20030;-75
2022/06/10 00:37:28;;;;;;;4.78;2.30;;;;;;;;;;4951119;28;20047;-76
2022/06/10 00:39:53;;;;;;;4.00;2.33;;;;;;;;;;4952234;28;20631;-75
2022/06/10 00:42:19;;;;;;;4.18;2.38;;;;;;;;;;4929141;28;20083;-74
2022/06/10 00:44:54;;;;;;;3.97;2.33;;;;;;;;;;4948736;28;20113;-75
2022/06/10 00:47:23;;;;;;;4.15;2.13;;;;;;;;;;4948231;28;20033;-76
2022/06/10 00:50:22;;;;;;;5.88;2.40;;;;;;;;;;4933865;29;20503;-76
2022/06/10 00:53:00;;;;;;;4.60;2.33;;;;;;;;;;4929949;28;20066;-76
2022/06/10 00:55:29;;;;;;;3.83;2.30;;;;;;;;;;4947201;28;20039;-76
2022/06/10 00:58:16;;;;;;;5.00;2.20;;;;;;;;;;4948074;28;20086;-76
2022/06/10 01:00:42;;;;;;;4.47;2.22;;;;;;;;;;4951502;28;20376;-74
2022/06/10 01:03:07;;;;;;;6.18;2.20;;;;;;;;;;4950887;29;20042;-74
2022/06/10 01:05:33;;;;;;;2.58;2.30;;;;;;;;;;4951246;28;20109;-74
2022/06/10 01:08:06;;;;;;;3.75;2.03;;;;;;;;;;4951582;28;20110;-74
2022/06/10 01:11:01;;;;;;;3.90;1.98;;;;;;;;;;4950591;28;20480;-74
2022/06/10 01:13:36;;;;;;;3.20;2.15;;;;;;;;;;4911290;28;20046;-75
2022/06/10 01:16:11;;;;;;;5.65;2.10;;;;;;;;;;4948458;28;20047;-74
2022/06/10 01:18:46;;;;;;;3.38;1.95;;;;;;;;;;4935197;29;20046;-75
2022/06/10 01:21:26;;;;;;;5.15;2.10;;;;;;;;;;4951220;28;20045;-72
2022/06/10 01:24:29;;;;;;;2.67;1.90;;;;;;;;;;4950405;28;20019;-74
2022/06/10 01:30:10;;;;;;;3.42;2.05;;;;;;;;;;4950324;28;20721;-73
2022/06/10 01:32:51;;;;;;;3.25;2.58;;;;;;;;;;4950353;28;21096;-78
2022/06/10 01:35:26;;;;;;;6.70;2.50;;;;;;;;;;4948349;28;20484;-74
2022/06/10 01:37:57;;;;;;;4.57;2.50;;;;;;;;;;4950029;28;20049;-75
2022/06/10 01:40:40;;;;;;;3.10;1.88;;;;;;;;;;4949182;28;20043;-73
2022/06/10 01:43:28;;;;;;;2.47;1.98;;;;;;;;;;4949588;28;20476;-75
2022/06/10 01:46:09;;;;;;;3.05;1.80;;;;;;;;;;4951443;28;20039;-75
2022/06/10 01:48:48;;;;;;;5.13;1.80;;;;;;;;;;4949544;28;20160;-73
2022/06/10 01:51:27;;;;;;;2.47;1.88;;;;;;;;;;4950478;29;20570;-74
2022/06/10 01:54:04;;;;;;;6.25;2.13;;;;;;;;;;4951129;28;20369;-74
2022/06/10 01:56:37;;;;;;;4.13;2.05;;;;;;;;;;4949386;28;20035;-73
2022/06/10 01:59:10;;;;;;;1.95;1.70;;;;;;;;;;4949434;28;20074;-75
2022/06/10 02:01:39;;;;;;;2.53;1.70;;;;;;;;;;4947770;28;20035;-74
2022/06/10 02:04:15;;;;;;;3.30;1.80;;;;;;;;;;4950097;28;20043;-75
2022/06/10 02:06:49;;;;;;;2.35;2.00;;;;;;;;;;4949989;28;20118;-74
2022/06/10 02:09:18;;;;;;;3.05;1.80;;;;;;;;;;4948484;28;20046;-74
2022/06/10 02:11:53;;;;;;;5.97;2.00;;;;;;;;;;4949938;28;20058;-74
2022/06/10 02:14:29;;;;;;;3.60;2.05;;;;;;;;;;4950564;28;20026;-75
2022/06/10 02:16:55;;;;;;;4.30;1.90;;;;;;;;;;4951145;28;20050;-74
2022/06/10 02:19:24;;;;;;;2.03;1.83;;;;;;;;;;4949060;29;20047;-75
2022/06/10 02:21:58;;;;;;;2.08;1.88;;;;;;;;;;4951126;28;20126;-74
2022/06/10 02:24:30;;;;;;;3.70;1.85;;;;;;;;;;4918353;28;20051;-74
2022/06/10 02:27:01;;;;;;;3.08;1.83;;;;;;;;;;4950747;28;20516;-74
2022/06/10 02:29:32;;;;;;;3.03;2.13;;;;;;;;;;4949227;28;20027;-72
2022/06/10 02:32:00;;;;;;;4.20;2.10;;;;;;;;;;4951495;28;20514;-71
2022/06/10 02:34:28;;;;;;;4.95;2.00;;;;;;;;;;4951362;28;20090;-72
2022/06/10 02:37:08;;;;;;;3.97;2.00;;;;;;;;;;4949507;29;20514;-72
2022/06/10 02:39:45;;;;;;;6.93;2.00;;;;;;;;;;4951571;28;20522;-73
2022/06/10 02:42:29;;;;;;;4.10;2.10;;;;;;;;;;4932949;29;21364;-72
2022/06/10 02:45:29;;;;;;;2.83;2.00;;;;;;;;;;4951892;28;20418;-72
2022/06/10 02:48:03;;;;;;;4.35;2.00;;;;;;;;;;4932435;29;20124;-70
2022/06/10 02:50:29;;;;;;;3.67;1.98;;;;;;;;;;4950141;28;20063;-71
2022/06/10 02:52:55;;;;;;;3.40;2.10;;;;;;;;;;4953602;28;20077;-72
2022/06/10 02:55:25;;;;;;;2.83;2.03;;;;;;;;;;4949941;28;20570;-70
2022/06/10 03:03:50;;;;;;;4.25;2.03;;;;;;;;;;4953086;28;20380;-75
2022/06/10 03:06:25;;;;;;;3.95;1.95;;;;;;;;;;4953133;28;20511;-76
2022/06/10 03:09:18;;;;;;;3.65;2.17;;;;;;;;;;4951736;28;20050;-75
2022/06/10 03:12:09;;;;;;;4.70;2.00;;;;;;;;;;4945741;29;20043;-76
2022/06/10 03:14:43;;;;;;;2.63;1.98;;;;;;;;;;4953200;28;20046;-76
2022/06/10 03:17:42;;;;;;;3.65;2.10;;;;;;;;;;4951696;28;20428;-76
2022/06/10 03:20:11;;;;;;;3.60;1.83;;;;;;;;;;4951944;28;20054;-75
2022/06/10 03:22:39;;;;;;;3.47;2.10;;;;;;;;;;4952888;28;20097;-77
2022/06/10 03:25:10;;;;;;;2.20;1.98;;;;;;;;;;4953166;29;20050;-77
2022/06/10 03:28:00;;;;;;;4.82;2.10;;;;;;;;;;4952934;28;20538;-76
2022/06/10 03:30:34;;;;;;;3.50;1.90;;;;;;;;;;4953143;28;20062;-77
2022/06/10 03:33:15;;;;;;;3.15;2.00;;;;;;;;;;4954450;29;20035;-75
2022/06/10 03:35:50;;;;;;;3.90;1.95;;;;;;;;;;4952517;28;20027;-76
2022/06/10 03:38:16;;;;;;;3.72;2.00;;;;;;;;;;4933532;29;20511;-76
2022/06/10 03:40:42;;;;;;;3.65;2.17;;;;;;;;;;4952730;28;20074;-75
2022/06/10 03:43:12;;;;;;;4.03;2.03;;;;;;;;;;4953748;28;20511;-76
2022/06/10 03:45:49;;;;;;;2.10;1.83;;;;;;;;;;4935382;29;20507;-77
2022/06/10 03:48:18;;;;;;;4.72;2.28;;;;;;;;;;4951161;28;20134;-75
2022/06/10 03:50:47;;;;;;;3.78;1.77;;;;;;;;;;4954188;28;20118;-75
2022/06/10 03:53:22;;;;;;;3.88;2.17;;;;;;;;;;4952480;28;20054;-75
2022/06/10 03:55:47;;;;;;;3.17;2.35;;;;;;;;;;4952225;28;20122;-77
2022/06/10 03:58:13;;;;;;;5.07;2.15;;;;;;;;;;4952553;29;20036;-76
2022/06/10 04:00:39;;;;;;;2.70;2.00;;;;;;;;;;4950738;28;20099;-76
2022/06/10 04:03:05;;;;;;;2.92;1.90;;;;;;;;;;4952341;28;20039;-76
2022/06/10 04:05:30;;;;;;;3.90;1.98;;;;;;;;;;4950327;28;20101;-75
2022/06/10 04:07:56;;;;;;;4.35;1.80;;;;;;;;;;4952819;28;20039;-76
2022/06/10 04:10:24;;;;;;;4.43;1.90;;;;;;;;;;4950230;28;20042;-76
2022/06/10 04:12:50;;;;;;;4.68;2.00;;;;;;;;;;4951216;28;20046;-75
2022/06/10 04:15:16;;;;;;;3.22;2.03;;;;;;;;;;4949417;28;20040;-75
2022/06/10 04:17:50;;;;;;;2.10;1.92;;;;;;;;;;4936390;29;20031;-76
2022/06/10 04:20:26;;;;;;;4.25;2.20;;;;;;;;;;4952169;28;20035;-75
2022/06/10 04:22:51;;;;;;;2.60;2.00;;;;;;;;;;4936049;29;20063;-75
2022/06/10 04:25:17;;;;;;;3.15;2.20;;;;;;;;;;4951541;28;20074;-73
2022/06/10 04:27:43;;;;;;;4.13;2.20;;;;;;;;;;4951096;28;20507;-74
2022/06/10 04:30:22;;;;;;;5.25;2.40;;;;;;;;;;4952184;28;20502;-76
2022/06/10 04:32:48;;;;;;;5.53;2.38;;;;;;;;;;4953866;28;20039;-76
2022/06/10 04:35:13;;;;;;;3.83;2.45;;;;;;;;;;4953006;29;20082;-76
2022/06/10 04:37:39;;;;;;;3.97;2.30;;;;;;;;;;4949516;28;20069;-75
2022/06/10 04:40:05;;;;;;;5.72;2.67;;;;;;;;;;4950815;28;20395;-76
2022/06/10 04:42:30;;;;;;;6.22;2.70;;;;;;;;;;4952105;28;20135;-74
2022/06/10 04:44:57;;;;;;;12.52;2.75;;;;;;;;;;4950677;29;20115;-76
2022/06/10 04:47:22;;;;;;;4.35;2.47;;;;;;;;;;4953016;28;20031;-76
2022/06/10 04:49:48;;;;;;;4.03;2.75;;;;;;;;;;4950312;28;20411;-74
2022/06/10 04:52:15;;;;;;;2.95;2.50;;;;;;;;;;4950505;28;20047;-76
2022/06/10 04:54:40;;;;;;;5.05;2.75;;;;;;;;;;4949170;28;20113;-73
2022/06/10 04:57:06;;;;;;;3.13;2.42;;;;;;;;;;4952032;29;20039;-74
2022/06/10 04:59:31;;;;;;;4.97;2.50;;;;;;;;;;4951429;28;20023;-75
2022/06/10 05:01:56;;;;;;;3.33;2.60;;;;;;;;;;4934818;29;20039;-77
2022/06/10 05:04:23;;;;;;;5.25;2.92;;;;;;;;;;4949791;28;20044;-76
2022/06/10 05:06:48;;;;;;;5.22;2.80;;;;;;;;;;4946132;28;20130;-74
2022/06/10 05:09:13;;;;;;;2.58;2.38;;;;;;;;;;4951427;28;20115;-75
2022/06/10 05:11:39;;;;;;;5.28;2.50;;;;;;;;;;4947992;29;20031;-76
2022/06/10 05:14:04;;;;;;;3.05;2.55;;;;;;;;;;4950819;28;20011;-76
2022/06/10 05:16:29;;;;;;;6.43;2.75;;;;;;;;;;4951516;29;20065;-75
2022/06/10 05:18:55;;;;;;;4.63;2.58;;;;;;;;;;4952166;28;20059;-75
2022/06/10 05:21:21;;;;;;;4.10;2.90;;;;;;;;;;4932305;28;20050;-77
2022/06/10 05:23:47;;;;;;;5.70;2.90;;;;;;;;;;4948169;28;20086;-76
2022/06/10 05:26:13;;;;;;;4.10;2.60;;;;;;;;;;4952260;28;20074;-75
2022/06/10 05:28:40;;;;;;;6.57;3.08;;;;;;;;;;4950542;28;20368;-75
2022/06/10 05:31:05;;;;;;;5.38;2.45;;;;;;;;;;4950936;29;20526;-77
2022/06/10 05:36:14;;;;;;;2.80;2.50;;;;;;;;;;4950087;28;20104;-77
2022/06/10 05:38:40;;;;;;;7.13;2.95;;;;;;;;;;4950493;28;20023;-76
2022/06/10 05:42:04;;;;;;;4.28;2.50;;;;;;;;;;4951439;28;20042;-75
2022/06/10 05:43:50;;;;;;;5.38;2.92;;;;;;;;;;4949276;28;20715;-76
2022/06/10 05:46:16;;;;;;;2.92;2.63;;;;;;;;;;4950445;29;20046;-77
2022/06/10 05:48:42;;;;;;;3.63;2.33;;;;;;;;;;4948662;28;20582;-76
2022/06/10 05:51:08;;;;;;;2.63;2.20;;;;;;;;;;4950425;28;20419;-76
2022/06/10 05:53:33;;;;;;;5.00;2.45;;;;;;;;;;4950286;28;20019;-75
2022/06/10 05:55:58;;;;;;;5.20;2.65;;;;;;;;;;4952748;29;20015;-76
2022/06/10 05:58:24;;;;;;;3.50;2.75;;;;;;;;;;4949685;28;20676;-76
2022/06/10 06:00:49;;;;;;;4.15;2.90;;;;;;;;;;4950715;29;20067;-75
2022/06/10 06:03:14;;;;;;;3.15;2.45;;;;;;;;;;4948486;28;20491;-75
2022/06/10 06:05:40;;;;;;;6.38;2.85;;;;;;;;;;4950834;28;20058;-76
2022/06/10 06:08:05;;;;;;;3.95;2.65;;;;;;;;;;4950562;29;20058;-76
2022/06/10 06:10:30;;;;;;;5.80;2.53;;;;;;;;;;4949097;29;20031;-76
2022/06/10 06:12:56;;;;;;;4.43;2.20;;;;;;;;;;4950804;28;20487;-77
2022/06/10 06:15:22;;;;;;;3.90;1.98;;;;;;;;;;4949754;28;20503;-75
2022/06/10 06:17:50;;;;;;;4.72;1.90;;;;;;;;;;4948776;28;20063;-75
2022/06/10 06:20:15;;;;;;;4.63;1.70;;;;;;;;;;4950781;28;20051;-77
2022/06/10 06:22:41;;;;;;;4.78;1.70;;;;;;;;;;4949995;28;20755;-77
2022/06/10 06:25:07;;;;;;;4.70;1.67;;;;;;;;;;4949039;28;20031;-77
2022/06/10 06:27:33;;;;;;;2.92;1.67;;;;;;;;;;4950719;28;20043;-76
2022/06/10 06:30:00;;;;;;;1.90;1.52;;;;;;;;;;4952236;28;20039;-77
2022/06/10 06:32:26;;;;;;;4.22;1.60;;;;;;;;;;4953669;29;20058;-76
2022/06/10 06:34:51;;;;;;;3.08;1.35;;;;;;;;;;4953209;28;20051;-75
2022/06/10 06:37:19;;;;;;;4.22;1.65;;;;;;;;;;4956136;28;20661;-76
2022/06/10 06:39:45;;;;;;;5.95;1.65;;;;;;;;;;4954433;28;20044;-75
2022/06/10 06:42:11;;;;;;;4.47;1.80;;;;;;;;;;4954489;28;20046;-75
2022/06/10 06:44:37;;;;;;;4.10;1.73;;;;;;;;;;4957261;28;20450;-75
2022/06/10 06:47:03;;;;;;;4.47;1.42;;;;;;;;;;4941151;29;20042;-76
2022/06/10 06:49:29;;;;;;;4.32;1.90;;;;;;;;;;4956560;28;20039;-74
2022/06/10 06:51:55;;;;;;;2.92;1.58;;;;;;;;;;4956020;28;20054;-75
2022/06/10 06:54:21;;;;;;;5.47;1.60;;;;;;;;;;4957323;28;20043;-76
2022/06/10 06:56:48;;;;;;;3.15;1.60;;;;;;;;;;4955917;28;20114;-76
2022/06/10 06:59:14;;;;;;;4.00;1.30;;;;;;;;;;4955934;28;20023;-76
2022/06/10 07:01:39;;;;;;;3.92;1.70;;;;;;;;;;4954958;28;20039;-75
2022/06/10 07:04:06;;;;;;;5.72;1.88;;;;;;;;;;4955485;28;20094;-76
2022/06/10 07:06:34;;;;;;;5.88;1.80;;;;;;;;;;4954046;28;20038;-73
2022/06/10 07:08:59;;;;;;;3.45;1.80;;;;;;;;;;4956579;28;20047;-76
2022/06/10 07:11:24;;;;;;;4.32;1.80;;;;;;;;;;4953932;28;20023;-76
2022/06/10 07:13:50;;;;;;;5.10;1.77;;;;;;;;;;4954244;28;20039;-76
2022/06/10 07:16:16;;;;;;;3.67;1.60;;;;;;;;;;4952544;28;20043;-76
2022/06/10 07:18:42;;;;;;;4.00;1.80;;;;;;;;;;4936813;28;20102;-76
2022/06/10 07:21:08;;;;;;;3.88;1.77;;;;;;;;;;4953768;28;20058;-76
2022/06/10 07:23:33;;;;;;;4.40;2.05;;;;;;;;;;4953775;28;20428;-76
2022/06/10 07:25:59;;;;;;;3.17;1.63;;;;;;;;;;4954732;28;20034;-76
2022/06/10 07:28:25;;;;;;;6.18;1.73;;;;;;;;;;4953528;28;20032;-77
2022/06/10 07:30:51;;;;;;;7.63;1.50;;;;;;;;;;4952576;28;20126;-76
2022/06/10 07:33:17;;;;;;;4.55;1.75;;;;;;;;;;4954691;28;20118;-75
2022/06/10 07:35:42;;;;;;;5.82;1.70;;;;;;;;;;4956098;28;20023;-75
2022/06/10 07:38:09;;;;;;;2.55;1.63;;;;;;;;;;4953582;28;20039;-76
2022/06/10 07:43:23;;;;;;;3.65;1.60;;;;;;;;;;4941922;28;20090;-77
2022/06/10 07:45:49;;;;;;;4.80;1.90;;;;;;;;;;4955108;28;20126;-76
2022/06/10 07:48:16;;;;;;;3.78;1.77;;;;;;;;;;4934095;28;20055;-76
2022/06/10 07:50:43;;;;;;;3.78;1.80;;;;;;;;;;4939110;29;20467;-76
2022/06/10 07:53:10;;;;;;;3.22;1.65;;;;;;;;;;4953803;28;20047;-75
2022/06/10 07:55:36;;;;;;;5.25;1.67;;;;;;;;;;4938236;29;20101;-77
2022/06/10 07:58:02;;;;;;;4.05;1.88;;;;;;;;;;4952347;28;20152;-76
2022/06/10 08:00:27;;;;;;;5.20;2.22;;;;;;;;;;4936168;29;20089;-76
2022/06/10 08:02:53;;;;;;;3.35;1.45;;;;;;;;;;4952597;28;20051;-76
2022/06/10 08:05:19;;;;;;;2.65;1.45;;;;;;;;;;4954177;28;20427;-76
2022/06/10 08:07:45;;;;;;;5.03;1.50;;;;;;;;;;4935524;29;20046;-76
2022/06/10 08:10:25;;;;;;;5.30;1.70;;;;;;;;;;4954843;28;20042;-76
2022/06/10 08:12:50;;;;;;;3.67;1.63;;;;;;;;;;4957386;28;20483;-77
2022/06/10 08:15:17;;;;;;;3.97;1.45;;;;;;;;;;4954182;29;20123;-75
2022/06/10 08:17:43;;;;;;;4.55;1.80;;;;;;;;;;4952572;29;20031;-76
2022/06/10 08:20:23;;;;;;;3.05;1.50;;;;;;;;;;4953011;28;20050;-77
2022/06/10 08:22:48;;;;;;;2.58;1.30;;;;;;;;;;4952142;28;20059;-75
2022/06/10 08:25:14;;;;;;;5.53;1.63;;;;;;;;;;4952875;28;20070;-76
2022/06/10 08:27:40;;;;;;;3.53;1.40;;;;;;;;;;4950706;28;20043;-75
2022/06/10 08:30:09;;;;;;;6.10;1.65;;;;;;;;;;4938375;29;20066;-76
2022/06/10 08:32:35;;;;;;;4.57;1.45;;;;;;;;;;4948141;28;20038;-76
2022/06/10 08:35:00;;;;;;;4.07;1.50;;;;;;;;;;4952222;28;20428;-75
2022/06/10 08:37:25;;;;;;;7.88;1.85;;;;;;;;;;4952295;28;20027;-77
2022/06/10 08:39:51;;;;;;;4.95;1.50;;;;;;;;;;4949025;29;20042;-76
2022/06/10 08:42:44;;;;;;;3.88;1.58;;;;;;;;;;4935705;29;20487;-75
2022/06/10 08:45:30;;;;;;;5.45;1.33;;;;;;;;;;4951207;28;20051;-75
2022/06/10 08:48:17;;;;;;;6.38;1.70;;;;;;;;;;4951530;28;20081;-76
2022/06/10 08:51:12;;;;;;;5.75;1.65;;;;;;;;;;4950760;28;20399;-75
2022/06/10 08:53:41;;;;;;;3.58;1.20;;;;;;;;;;4952294;28;20030;-74
2022/06/10 08:56:18;;;;;;;1.73;1.25;;;;;;;;;;4950063;28;20127;-76
2022/06/10 08:58:59;;;;;;;2.50;1.40;;;;;;;;;;4950053;28;20452;-75
2022/06/10 09:01:28;;;;;;;3.25;1.50;;;;;;;;;;4952132;28;20035;-78
2022/06/10 09:04:02;;;;;;;8.48;1.90;;;;;;;;;;4934132;28;20039;-76
2022/06/10 09:06:38;;;;;;;11.15;2.17;;;;;;;;;;4951965;28;20043;-77
2022/06/10 09:09:06;;;;;;;2.65;1.50;;;;;;;;;;4952459;29;20507;-76
2022/06/10 09:11:38;;;;;;;3.28;1.20;;;;;;;;;;4935120;29;20114;-76
2022/06/10 09:14:24;;;;;;;2.53;1.17;;;;;;;;;;4951701;29;20027;-76
2022/06/10 09:17:06;;;;;;;4.35;1.33;;;;;;;;;;4951320;28;20504;-77
2022/06/10 09:19:40;;;;;;;3.90;1.10;;;;;;;;;;4953510;28;20496;-75
2022/06/10 09:22:24;;;;;;;3.28;1.20;;;;;;;;;;4955796;28;20039;-77
2022/06/10 09:25:24;;;;;;;3.22;1.30;;;;;;;;;;4951364;28;20134;-76
2022/06/10 09:27:55;;;;;;;6.78;1.40;;;;;;;;;;4933848;28;20047;-77
2022/06/10 09:30:32;;;;;;;3.78;1.25;;;;;;;;;;4951990;28;20063;-74
2022/06/10 09:33:04;;;;;;;3.00;1.20;;;;;;;;;;4949888;28;20438;-77
2022/06/10 09:35:53;;;;;;;2.30;1.00;;;;;;;;;;4949864;28;20114;-75
2022/06/10 09:38:22;;;;;;;3.88;1.08;;;;;;;;;;4950132;28;20046;-76
2022/06/10 09:41:15;;;;;;;4.45;1.40;;;;;;;;;;4951785;28;20046;-75
2022/06/10 09:44:05;;;;;;;5.28;1.58;;;;;;;;;;4947847;28;20558;-75
2022/06/10 09:46:39;;;;;;;4.28;1.80;;;;;;;;;;4951173;28;20141;-74
2022/06/10 09:49:29;;;;;;;1.63;1.10;;;;;;;;;;4950485;28;20547;-75
2022/06/10 09:52:15;;;;;;;3.42;1.42;;;;;;;;;;4954449;28;20043;-75
2022/06/10 09:55:01;;;;;;;5.55;1.30;;;;;;;;;;4950045;28;20122;-76
2022/06/10 09:57:50;;;;;;;4.07;1.25;;;;;;;;;;4951033;28;20067;-76
2022/06/10 10:00:24;;;;;;;3.92;1.20;;;;;;;;;;4949512;28;20035;-76
2022/06/10 10:03:14;;;;;;;2.70;1.20;;;;;;;;;;4946173;28;20027;-76
2022/06/10 10:06:16;;;;;;;2.75;1.20;;;;;;;;;;4934077;28;20600;-76
2022/06/10 10:09:00;;;;;;;3.67;1.33;;;;;;;;;;4950489;28;20066;-74
2022/06/10 10:11:39;;;;;;;2.65;1.30;;;;;;;;;;4934445;29;20502;-76
2022/06/10 10:14:14;;;;;;;2.75;1.63;;;;;;;;;;4934413;29;20050;-76
2022/06/10 10:16:50;;;;;;;2.13;1.02;;;;;;;;;;4951211;28;20567;-77
2022/06/10 10:19:32;;;;;;;5.07;1.63;;;;;;;;;;4951251;28;20550;-76
2022/06/10 10:22:10;;;;;;;1.58;1.02;;;;;;;;;;4949766;28;20031;-76
2022/06/10 10:24:42;;;;;;;5.18;1.10;;;;;;;;;;4946578;29;20047;-75
2022/06/10 10:27:20;;;;;;;3.42;1.02;;;;;;;;;;4946462;28;20031;-74
2022/06/10 10:29:51;;;;;;;5.70;1.67;;;;;;;;;;4948674;28;20070;-75
2022/06/10 10:32:21;;;;;;;2.83;1.00;;;;;;;;;;4947685;28;20027;-76
2022/06/10 10:34:51;;;;;;;4.53;1.20;;;;;;;;;;4931707;29;20080;-77
2022/06/10 10:37:29;;;;;;;4.97;1.02;;;;;;;;;;4951649;28;20050;-76
2022/06/10 10:40:00;;;;;;;2.30;0.98;;;;;;;;;;4951920;28;20626;-76
2022/06/10 10:42:47;;;;;;;4.30;1.03;;;;;;;;;;4950120;28;20130;-76
2022/06/10 10:45:23;;;;;;;3.17;1.10;;;;;;;;;;4953162;28;20041;-76
2022/06/10 10:47:55;;;;;;;5.55;1.40;;;;;;;;;;4951285;28;20039;-76
2022/06/10 10:50:32;;;;;;;4.20;1.10;;;;;;;;;;4950075;28;20090;-77
2022/06/10 10:53:04;;;;;;;3.05;0.85;;;;;;;;;;4952330;28;20063;-76
2022/06/10 10:55:36;;;;;;;3.95;1.30;;;;;;;;;;4950623;28;20126;-76
2022/06/10 10:58:15;;;;;;;4.43;1.23;;;;;;;;;;4949590;28;20094;-77
2022/06/10 11:00:44;;;;;;;2.95;0.90;;;;;;;;;;4952171;29;20032;-75
2022/06/10 11:03:27;;;;;;;3.50;1.02;;;;;;;;;;4949390;28;20036;-76
2022/06/10 11:05:54;;;;;;;5.10;1.48;;;;;;;;;;4946926;28;20122;-76
2022/06/10 11:08:30;;;;;;;4.95;1.20;;;;;;;;;;4950578;28;20448;-77
2022/06/10 11:11:11;;;;;;;3.03;1.00;;;;;;;;;;4951259;28;20047;-78
2022/06/10 11:13:45;;;;;;;5.07;1.80;;;;;;;;;;4949672;28;20047;-79
2022/06/10 11:16:34;;;;;;;3.17;1.30;;;;;;;;;;4955704;28;20381;-77
2022/06/10 11:19:27;;;;;;;2.42;0.80;;;;;;;;;;4955154;29;20411;-76
2022/06/10 11:22:01;;;;;;;2.30;0.82;;;;;;;;;;4952379;29;20047;-77
2022/06/10 11:24:31;;;;;;;2.28;1.08;;;;;;;;;;4953757;28;20054;-76
2022/06/10 11:27:02;;;;;;;2.60;0.90;;;;;;;;;;4936152;28;20045;-77
2022/06/10 11:29:29;;;;;;;2.25;0.98;;;;;;;;;;4951734;28;20034;-77
2022/06/10 11:32:00;;;;;;;3.63;1.00;;;;;;;;;;4952008;28;20428;-77
2022/06/10 11:34:39;;;;;;;2.78;0.90;;;;;;;;;;4954956;28;20110;-77
2022/06/10 11:37:20;;;;;;;4.40;0.98;;;;;;;;;;4951104;28;20046;-77
2022/06/10 11:39:50;;;;;;;3.13;1.20;;;;;;;;;;4950046;28;20046;-76
2022/06/10 11:42:19;;;;;;;5.05;1.02;;;;;;;;;;4952579;28;20095;-76
2022/06/10 11:44:56;;;;;;;4.57;1.10;;;;;;;;;;4953284;28;20027;-77
2022/06/10 11:47:29;;;;;;;2.50;1.30;;;;;;;;;;4956730;28;20156;-77
2022/06/10 11:50:01;;;;;;;3.17;0.90;;;;;;;;;;4953774;28;20040;-76
2022/06/10 11:52:32;;;;;;;4.83;1.33;;;;;;;;;;4951605;28;20043;-76
2022/06/10 11:55:09;;;;;;;3.42;1.20;;;;;;;;;;4936367;28;20051;-76
2022/06/10 12:00:38;;;;;;;3.40;0.90;;;;;;;;;;4952784;28;20070;-76
2022/06/10 12:03:39;;;;;;;2.80;1.20;;;;;;;;;;4954283;28;20115;-76
2022/06/10 12:06:31;;;;;;;4.00;2.20;;;;;;;;;;4950318;28;20046;-76
2022/06/10 12:09:17;;;;;;;4.20;1.60;;;;;;;;;;4946518;28;20039;-75
2022/06/10 12:11:44;;;;;;;4.80;1.52;;;;;;;;;;4952243;28;20034;-75
2022/06/10 12:14:25;;;;;;;4.10;1.25;;;;;;;;;;4954514;28;20030;-76
2022/06/10 12:17:04;;;;;;;4.07;1.13;;;;;;;;;;4951278;28;20031;-75
2022/06/10 12:19:42;;;;;;;3.28;0.95;;;;;;;;;;4956295;28;20039;-74
2022/06/10 12:22:09;;;;;;;3.67;1.00;;;;;;;;;;4947563;28;20507;-75
2022/06/10 12:24:35;;;;;;;2.65;1.00;;;;;;;;;;4948694;28;20036;-74
2022/06/10 12:27:05;;;;;;;2.47;0.90;;;;;;;;;;4951728;28;20043;-76
2022/06/10 12:29:32;;;;;;;3.65;1.10;;;;;;;;;;4952005;28;20051;-75
2022/06/10 12:32:21;;;;;;;2.92;1.10;;;;;;;;;;4948536;28;20209;-76
2022/06/10 12:34:58;;;;;;;1.73;0.68;;;;;;;;;;4952394;29;20035;-75
2022/06/10 12:37:27;;;;;;;4.72;1.10;;;;;;;;;;4954115;28;20051;-75
2022/06/10 12:40:11;;;;;;;4.43;1.00;;;;;;;;;;4948920;28;20727;-75
2022/06/10 12:42:43;;;;;;;1.80;0.95;;;;;;;;;;4955493;28;20042;-73
2022/06/10 12:45:19;;;;;;;6.30;1.17;;;;;;;;;;4950964;28;20570;-75
2022/06/10 12:47:45;;;;;;;3.15;0.90;;;;;;;;;;4954310;29;20071;-76
2022/06/10 12:50:28;;;;;;;8.82;0.95;;;;;;;;;;4953353;28;20068;-75
2022/06/10 12:53:02;;;;;;;3.00;1.00;;;;;;;;;;4935277;28;20051;-73
2022/06/10 12:55:47;;;;;;;3.65;1.02;;;;;;;;;;4952638;28;20039;-76
2022/06/10 12:58:36;;;;;;;2.53;0.90;;;;;;;;;;4952299;28;20039;-77
2022/06/10 13:01:22;;;;;;;5.90;1.25;;;;;;;;;;4946946;28;20035;-75
2022/06/10 13:03:53;;;;;;;2.38;1.05;;;;;;;;;;4952768;28;20046;-74
2022/06/10 13:06:42;;;;;;;3.28;1.10;;;;;;;;;;4953346;28;20065;-75
2022/06/10 13:09:10;;;;;;;1.42;0.80;;;;;;;;;;4952396;28;20047;-75
2022/06/10 13:11:38;;;;;;;2.97;1.48;;;;;;;;;;4950692;28;20031;-74
2022/06/10 13:14:16;;;;;;;3.88;1.10;;;;;;;;;;4949923;28;20015;-75
2022/06/10 13:16:57;;;;;;;4.47;1.02;;;;;;;;;;4949260;28;20043;-75
2022/06/10 13:19:36;;;;;;;2.92;1.02;;;;;;;;;;4953834;28;20408;-74
2022/06/10 13:22:20;;;;;;;2.70;1.30;;;;;;;;;;4938298;28;20055;-75
2022/06/10 13:24:54;;;;;;;3.05;1.25;;;;;;;;;;4936023;28;20035;-76
2022/06/10 13:27:38;;;;;;;3.42;1.17;;;;;;;;;;4949787;28;20531;-75
2022/06/10 13:30:14;;;;;;;3.97;1.25;;;;;;;;;;4950693;28;20035;-75
2022/06/10 13:32:46;;;;;;;4.78;1.00;;;;;;;;;;4950161;28;20475;-75
2022/06/10 13:35:19;;;;;;;5.45;1.15;;;;;;;;;;4945165;28;20030;-75
2022/06/10 13:37:45;;;;;;;5.65;1.58;;;;;;;;;;4947546;28;20574;-76
2022/06/10 13:40:20;;;;;;;6.50;1.02;;;;;;;;;;4949463;28;20174;-75
2022/06/10 13:42:51;;;;;;;3.95;1.00;;;;;;;;;;4951926;28;20047;-76
2022/06/10 13:45:23;;;;;;;4.35;1.00;;;;;;;;;;4953506;29;20062;-76
2022/06/10 13:48:02;;;;;;;4.80;1.25;;;;;;;;;;4955143;28;20121;-76
2022/06/10 13:50:52;;;;;;;3.15;1.10;;;;;;;;;;4956617;28;20104;-76
2022/06/10 13:53:34;;;;;;;2.85;1.25;;;;;;;;;;4958871;28;20070;-76
2022/06/10 13:56:03;;;;;;;3.50;1.10;;;;;;;;;;4937112;29;20130;-74
2022/06/10 13:58:30;;;;;;;4.70;1.38;;;;;;;;;;4955370;28;20039;-76
2022/06/10 14:01:06;;;;;;;4.65;1.00;;;;;;;;;;4950899;28;20049;-75
2022/06/10 14:03:34;;;;;;;3.80;1.45;;;;;;;;;;4952173;28;20423;-74
2022/06/10 14:06:25;;;;;;;3.85;0.95;;;;;;;;;;4951977;29;20049;-74
2022/06/10 14:08:58;;;;;;;4.15;1.05;;;;;;;;;;4948995;28;20043;-75
2022/06/10 14:11:31;;;;;;;3.80;1.00;;;;;;;;;;4936262;29;20042;-75
2022/06/10 14:14:18;;;;;;;4.30;1.15;;;;;;;;;;4952264;28;20035;-75
2022/06/10 14:16:45;;;;;;;5.18;1.25;;;;;;;;;;4955125;29;20451;-75
2022/06/10 14:19:17;;;;;;;4.07;1.30;;;;;;;;;;4954938;28;20094;-76
2022/06/10 14:21:43;;;;;;;7.15;1.30;;;;;;;;;;4954173;28;20043;-77
2022/06/10 14:24:17;;;;;;;4.07;1.30;;;;;;;;;;4945755;28;20098;-73
2022/06/10 14:26:44;;;;;;;4.68;1.17;;;;;;;;;;4949665;28;20031;-76
2022/06/10 14:29:18;;;;;;;3.72;1.10;;;;;;;;;;4949714;28;20058;-72
2022/06/10 14:31:56;;;;;;;2.13;1.00;;;;;;;;;;4949824;29;20047;-75
2022/06/10 14:34:24;;;;;;;4.38;1.10;;;;;;;;;;4951541;28;20126;-73
2022/06/10 14:37:00;;;;;;;3.83;1.17;;;;;;;;;;4947858;28;20134;-75
2022/06/10 14:39:26;;;;;;;2.67;1.05;;;;;;;;;;4944202;28;20032;-75
2022/06/10 14:42:12;;;;;;;2.60;0.95;;;;;;;;;;4947759;28;20454;-74
2022/06/10 14:44:40;;;;;;;4.82;1.30;;;;;;;;;;4946258;28;20043;-75
2022/06/10 14:47:19;;;;;;;2.63;1.17;;;;;;;;;;4950846;28;20486;-76
2022/06/10 14:49:58;;;;;;;5.00;1.30;;;;;;;;;;4950793;28;20043;-75
2022/06/10 14:52:36;;;;;;;2.85;1.10;;;;;;;;;;4949936;28;20038;-74
2022/06/10 14:55:03;;;;;;;3.30;1.10;;;;;;;;;;4950653;28;20038;-76
2022/06/10 14:57:30;;;;;;;3.20;1.30;;;;;;;;;;4951228;28;20121;-72
2022/06/10 14:59:56;;;;;;;4.32;1.50;;;;;;;;;;4952195;28;20151;-73
2022/06/10 15:02:21;;;;;;;5.32;1.30;;;;;;;;;;4954756;28;20135;-74
2022/06/10 15:07:34;;;;;;;5.18;1.40;;;;;;;;;;4948558;28;20074;-75
2022/06/10 15:10:01;;;;;;;3.45;1.00;;;;;;;;;;4949310;28;20039;-74
2022/06/10 15:12:29;;;;;;;3.22;1.20;;;;;;;;;;4951006;28;20066;-75
2022/06/10 15:14:56;;;;;;;7.15;1.38;;;;;;;;;;4952680;28;20495;-74
2022/06/10 15:17:30;;;;;;;3.75;1.33;;;;;;;;;;4954957;28;20047;-74
2022/06/10 15:19:56;;;;;;;3.03;1.35;;;;;;;;;;4952392;28;20059;-74
2022/06/10 15:22:30;;;;;;;4.95;1.67;;;;;;;;;;4952958;28;20032;-74
2022/06/10 15:24:59;;;;;;;3.03;1.23;;;;;;;;;;4933111;28;20043;-74
2022/06/10 15:27:25;;;;;;;3.05;1.02;;;;;;;;;;4952205;28;20040;-74
2022/06/10 15:29:50;;;;;;;5.97;1.40;;;;;;;;;;4952428;28;20438;-74
2022/06/10 15:32:19;;;;;;;2.95;1.08;;;;;;;;;;4954307;28;20035;-74
2022/06/10 15:43:01;;;;;;;5.50;1.48;;;;;;;;;;4949280;28;20178;-75